createdAt,value
2023-05-07T00:01:18.204Z,80.89
2023-05-07T00:03:52.818Z,81.11
2023-05-07T00:06:27.747Z,80.33
2023-05-07T00:09:02.061Z,81.95
2023-05-07T00:11:37.076Z,82.80
2023-05-07T00:14:10.227Z,84.11
2023-05-07T00:16:43.203Z,83.39
2023-05-07T00:19:18.448Z,84.61
2023-05-07T00:21:54.645Z,84.88
2023-05-07T00:24:28.864Z,84.91
2023-05-07T00:27:01.691Z,85.14
2023-05-07T00:29:34.594Z,86.08
2023-05-07T00:32:07.611Z,85.29
2023-05-07T00:34:41.171Z,85.80
2023-05-07T00:37:14.070Z,86.73
2023-05-07T00:39:48.324Z,85.92
2023-05-07T00:42:21.522Z,86.02
2023-05-07T00:44:54.518Z,86.45
2023-05-07T00:47:27.516Z,87.41
2023-05-07T00:50:00.900Z,87.72
2023-05-07T00:52:33.667Z,88.84
2023-05-07T00:55:08.950Z,87.56
2023-05-07T00:57:42.811Z,87.78
2023-05-07T01:00:16.148Z,87.69
2023-05-07T01:02:49.175Z,88.84
2023-05-07T01:05:24.072Z,88.15
2023-05-07T01:07:57.677Z,88.45
2023-05-07T01:10:32.581Z,88.21
2023-05-07T01:13:06.106Z,88.64
2023-05-07T01:15:39.271Z,89.35
2023-05-07T01:18:12.441Z,89.40
2023-05-07T01:20:45.588Z,89.27
2023-05-07T01:23:20.162Z,89.24
2023-05-07T01:25:53.686Z,89.01
2023-05-07T01:28:26.894Z,89.84
2023-05-07T01:31:03.708Z,89.19
2023-05-07T01:33:37.515Z,90.25
2023-05-07T01:36:11.479Z,89.30
2023-05-07T01:38:47.044Z,89.58
2023-05-07T01:41:20.612Z,88.97
2023-05-07T01:43:54.074Z,89.73
2023-05-07T01:46:28.471Z,89.92
2023-05-07T01:49:01.516Z,90.27
2023-05-07T01:51:35.122Z,89.47
2023-05-07T01:54:09.422Z,89.59
2023-05-07T01:56:42.264Z,90.85
2023-05-07T01:59:15.281Z,91.56
2023-05-07T02:01:48.697Z,90.48
2023-05-07T02:04:21.668Z,89.60
2023-05-07T02:06:54.728Z,90.23
2023-05-07T02:09:29.187Z,89.99
2023-05-07T02:12:02.506Z,90.74
2023-05-07T02:14:35.432Z,90.33
2023-05-07T02:17:09.687Z,90.87
2023-05-07T02:19:42.484Z,90.59
2023-05-07T02:22:15.201Z,90.40
2023-05-07T02:24:50.188Z,89.91
2023-05-07T02:27:23.005Z,90.94
2023-05-07T02:29:55.807Z,89.79
2023-05-07T02:32:28.621Z,90.85
2023-05-07T02:35:01.912Z,89.49
2023-05-07T02:37:34.854Z,89.64
2023-05-07T02:40:10.221Z,90.78
2023-05-07T02:42:43.163Z,90.82
2023-05-07T02:45:16.557Z,90.86
2023-05-07T02:47:49.575Z,91.57
2023-05-07T02:50:22.558Z,91.74
2023-05-07T02:52:55.464Z,91.97
2023-05-07T02:55:29.690Z,91.81
2023-05-07T02:58:02.442Z,90.21
2023-05-07T03:00:35.411Z,90.38
2023-05-07T03:03:08.188Z,90.11
2023-05-07T03:05:41.062Z,91.68
2023-05-07T03:08:14.227Z,91.50
2023-05-07T03:10:48.707Z,92.83
2023-05-07T03:13:21.605Z,91.69
2023-05-07T03:15:54.759Z,91.42
2023-05-07T03:18:27.646Z,91.46
2023-05-07T03:21:01.021Z,91.57
2023-05-07T03:23:33.926Z,92.01
2023-05-07T03:26:08.558Z,92.22
2023-05-07T03:28:41.386Z,91.71
2023-05-07T03:31:14.209Z,91.15
2023-05-07T03:33:54.006Z,92.28
2023-05-07T03:36:27.657Z,91.46
2023-05-07T03:39:00.592Z,91.68
2023-05-07T03:41:35.033Z,92.50
2023-05-07T03:44:07.871Z,92.62
2023-05-07T03:46:41.465Z,91.97
2023-05-07T03:49:14.272Z,93.85
2023-05-07T03:51:48.955Z,92.52
2023-05-07T03:54:21.952Z,92.19
2023-05-07T03:56:56.190Z,92.85
2023-05-07T03:59:29.020Z,92.62
2023-05-07T04:02:03.737Z,92.32
2023-05-07T04:04:38.199Z,91.72
2023-05-07T04:07:11.570Z,93.04
2023-05-07T04:09:44.513Z,91.90
2023-05-07T04:12:18.682Z,92.70
2023-05-07T04:14:51.504Z,91.18
2023-05-07T04:17:24.309Z,91.60
2023-05-07T04:19:57.237Z,91.23
2023-05-07T04:22:30.073Z,90.82
2023-05-07T04:25:03.355Z,90.77
2023-05-07T04:27:38.731Z,91.34
2023-05-07T04:30:12.808Z,91.57
2023-05-07T04:32:46.123Z,91.25
2023-05-07T04:35:19.051Z,90.87
2023-05-07T04:37:51.995Z,90.43
2023-05-07T04:40:24.916Z,90.15
2023-05-07T04:42:59.128Z,90.03
2023-05-07T04:45:32.120Z,90.20
2023-05-07T04:48:05.910Z,90.34
2023-05-07T04:50:39.493Z,90.70
2023-05-07T04:53:12.611Z,89.78
2023-05-07T04:55:46.019Z,87.64
2023-05-07T04:58:20.269Z,86.40
2023-05-07T05:00:53.364Z,86.97
2023-05-07T05:03:26.394Z,86.23
2023-05-07T05:06:00.480Z,86.69
2023-05-07T05:08:33.362Z,85.20
2023-05-07T05:11:06.474Z,86.71
2023-05-07T05:13:40.606Z,87.38
2023-05-07T05:16:13.529Z,86.59
2023-05-07T05:18:46.721Z,87.44
2023-05-07T05:21:20.119Z,88.60
2023-05-07T05:23:53.177Z,87.79
2023-05-07T05:26:25.963Z,88.16
2023-05-07T05:29:00.158Z,87.45
2023-05-07T05:31:33.038Z,86.78
2023-05-07T05:34:05.957Z,86.19
2023-05-07T05:36:38.759Z,87.29
2023-05-07T05:39:11.647Z,85.32
2023-05-07T05:41:44.755Z,85.96
2023-05-07T05:44:19.040Z,85.45
2023-05-07T05:46:52.085Z,84.71
2023-05-07T05:49:25.048Z,85.24
2023-05-07T05:51:58.004Z,86.45
2023-05-07T05:54:30.837Z,85.09
2023-05-07T05:57:05.138Z,84.42
2023-05-07T05:59:39.406Z,85.38
2023-05-07T06:02:12.334Z,84.07
2023-05-07T06:04:45.127Z,83.47
2023-05-07T06:07:18.236Z,81.66
2023-05-07T06:09:51.186Z,80.46
2023-05-07T06:12:24.041Z,79.92
2023-05-07T06:14:58.184Z,80.43
2023-05-07T06:17:31.541Z,80.32
2023-05-07T06:20:04.670Z,80.20
2023-05-07T06:22:37.511Z,80.18
2023-05-07T06:25:10.910Z,79.36
2023-05-07T06:27:43.837Z,79.30
2023-05-07T06:30:18.258Z,79.12
2023-05-07T06:32:51.185Z,78.21
2023-05-07T06:35:24.024Z,77.97
2023-05-07T06:37:57.038Z,79.17
2023-05-07T06:40:30.072Z,78.15
2023-05-07T06:43:02.933Z,78.36
2023-05-07T06:45:37.331Z,78.54
2023-05-07T06:48:10.126Z,77.77
2023-05-07T06:50:43.844Z,76.95
2023-05-07T06:53:16.706Z,76.88
2023-05-07T06:55:49.697Z,76.75
2023-05-07T06:58:22.591Z,76.54
2023-05-07T07:00:56.915Z,75.51
2023-05-07T07:03:29.909Z,74.67
2023-05-07T07:06:03.231Z,73.74
2023-05-07T07:08:36.316Z,74.46
2023-05-07T07:11:09.114Z,74.10
2023-05-07T07:13:42.383Z,72.90
2023-05-07T07:16:17.053Z,72.78
2023-05-07T07:18:50.172Z,72.81
2023-05-07T07:21:23.541Z,69.45
2023-05-07T07:23:56.583Z,68.36
2023-05-07T07:26:29.923Z,69.64
2023-05-07T07:29:03.128Z,70.91
2023-05-07T07:31:37.459Z,69.73
2023-05-07T07:34:10.576Z,69.77
2023-05-07T07:36:46.589Z,69.67
2023-05-07T07:39:20.056Z,69.29
2023-05-07T07:41:53.124Z,68.41
2023-05-07T07:44:26.118Z,68.58
2023-05-07T07:47:00.706Z,67.87
2023-05-07T07:49:33.874Z,66.74
2023-05-07T07:52:06.940Z,67.08
2023-05-07T07:54:40.031Z,66.69
2023-05-07T07:57:13.097Z,66.67
2023-05-07T07:59:46.096Z,66.53
2023-05-07T08:02:20.643Z,66.31
2023-05-07T08:04:53.784Z,66.63
2023-05-07T08:07:27.068Z,66.47
2023-05-07T08:09:59.999Z,65.84
2023-05-07T08:12:33.126Z,65.88
2023-05-07T08:15:06.582Z,62.80
2023-05-07T08:17:41.074Z,63.60
2023-05-07T08:20:14.281Z,63.78
2023-05-07T08:22:50.045Z,62.42
2023-05-07T08:25:23.246Z,61.88
2023-05-07T08:27:56.487Z,60.78
2023-05-07T08:30:29.552Z,61.79
2023-05-07T08:33:03.993Z,61.35
2023-05-07T08:35:37.335Z,62.42
2023-05-07T08:38:10.609Z,59.90
2023-05-07T08:40:43.711Z,60.57
2023-05-07T08:43:17.162Z,56.35
2023-05-07T08:45:51.824Z,55.14
2023-05-07T08:48:27.702Z,57.55
2023-05-07T08:51:01.172Z,58.49
2023-05-07T08:53:35.425Z,55.84
2023-05-07T08:56:09.431Z,55.86
2023-05-07T08:58:42.507Z,56.02
2023-05-07T09:01:16.620Z,56.29
2023-05-07T09:03:52.261Z,55.98
2023-05-07T09:06:25.391Z,55.68
2023-05-07T09:08:59.468Z,54.39
2023-05-07T09:11:32.588Z,52.81
2023-05-07T09:14:06.207Z,51.73
2023-05-07T09:16:40.859Z,53.90
2023-05-07T09:19:15.339Z,52.63
2023-05-07T09:21:48.407Z,53.99
2023-05-07T09:24:21.389Z,52.55
2023-05-07T09:26:54.340Z,54.21
2023-05-07T09:29:27.345Z,53.24
2023-05-07T09:32:00.264Z,51.54
2023-05-07T09:34:34.835Z,52.67
2023-05-07T09:37:08.441Z,52.34
2023-05-07T09:39:42.917Z,54.28
2023-05-07T09:42:19.263Z,54.09
2023-05-07T09:44:52.830Z,54.33
2023-05-07T09:47:26.842Z,52.12
2023-05-07T09:50:02.133Z,53.68
2023-05-07T09:52:36.604Z,53.17
2023-05-07T09:55:09.852Z,54.06
2023-05-07T09:57:44.234Z,52.85
2023-05-07T10:00:18.222Z,54.25
2023-05-07T10:02:54.235Z,53.14
2023-05-07T10:05:29.710Z,53.07
2023-05-07T10:08:04.866Z,51.06
2023-05-07T10:10:38.224Z,51.00
2023-05-07T10:13:12.646Z,51.61
2023-05-07T10:15:45.919Z,51.60
2023-05-07T10:18:19.632Z,50.10
2023-05-07T10:20:55.225Z,52.80
2023-05-07T10:23:29.364Z,49.22
2023-05-07T10:26:03.648Z,46.55
2023-05-07T10:28:39.492Z,48.05
2023-05-07T10:31:20.940Z,48.13
2023-05-07T10:33:55.063Z,49.25
2023-05-07T10:36:29.795Z,46.82
2023-05-07T10:39:02.977Z,49.05
2023-05-07T10:41:36.083Z,45.85
2023-05-07T10:44:09.493Z,46.41
2023-05-07T10:46:42.475Z,46.93
2023-05-07T10:49:16.891Z,43.93
2023-05-07T10:52:11.218Z,44.14
2023-05-07T10:54:44.484Z,45.64
2023-05-07T10:57:36.775Z,44.63
2023-05-07T11:00:39.061Z,44.16
2023-05-07T11:03:13.038Z,43.25
2023-05-07T11:05:46.866Z,43.35
2023-05-07T11:08:21.272Z,44.96
2023-05-07T11:10:55.333Z,43.82
2023-05-07T11:13:44.677Z,42.69
2023-05-07T11:16:21.250Z,46.61
2023-05-07T11:18:55.000Z,46.84
2023-05-07T11:21:34.760Z,46.52
2023-05-07T11:24:09.718Z,41.65
2023-05-07T11:26:47.093Z,42.60
2023-05-07T11:29:22.729Z,47.76
2023-05-07T11:31:56.966Z,43.38
2023-05-07T11:34:30.181Z,46.42
2023-05-07T11:37:04.089Z,41.16
2023-05-07T11:39:38.477Z,43.17
2023-05-07T11:42:26.446Z,44.29
2023-05-07T11:44:59.561Z,42.04
2023-05-07T11:47:32.851Z,47.12
2023-05-07T11:50:07.005Z,43.58
2023-05-07T11:52:42.378Z,41.83
2023-05-07T11:55:23.225Z,42.22
2023-05-07T11:57:56.130Z,42.16
2023-05-07T12:00:29.267Z,43.94
2023-05-07T12:03:05.808Z,41.37
2023-05-07T12:05:43.082Z,45.59
2023-05-07T12:08:16.501Z,42.39
2023-05-07T12:10:52.472Z,45.56
2023-05-07T12:13:26.161Z,41.62
2023-05-07T12:16:02.329Z,44.28
2023-05-07T12:18:36.187Z,43.22
2023-05-07T12:21:10.007Z,44.73
2023-05-07T12:26:17.128Z,47.79
2023-05-07T12:28:50.266Z,41.70
2023-05-07T12:31:23.374Z,45.11
2023-05-07T12:33:56.538Z,44.37
2023-05-07T12:36:38.705Z,43.20
2023-05-07T12:39:12.176Z,44.06
2023-05-07T12:44:19.348Z,43.28
2023-05-07T12:46:52.902Z,48.29
2023-05-07T12:49:26.643Z,49.25
2023-05-07T12:52:01.099Z,47.22
2023-05-07T12:54:34.665Z,45.78
2023-05-07T12:57:08.191Z,42.15
2023-05-07T12:59:43.362Z,41.51
2023-05-07T13:04:51.569Z,45.16
2023-05-07T13:07:28.264Z,41.75
2023-05-07T13:10:02.615Z,41.76
2023-05-07T13:12:37.191Z,41.35
2023-05-07T13:15:12.105Z,41.25
2023-05-07T13:17:45.529Z,50.95
2023-05-07T13:20:18.552Z,42.35
2023-05-07T13:22:51.769Z,44.08
2023-05-07T13:25:24.737Z,50.13
2023-05-07T13:28:09.472Z,45.43
2023-05-07T13:30:44.300Z,49.12
2023-05-07T13:33:20.826Z,51.53
2023-05-07T13:35:54.217Z,45.29
2023-05-07T13:38:27.255Z,49.15
2023-05-07T13:41:00.349Z,49.02
2023-05-07T13:43:34.670Z,53.75
2023-05-07T13:46:10.283Z,50.41
2023-05-07T13:48:43.708Z,45.57
2023-05-07T13:51:16.551Z,44.27
2023-05-07T13:53:49.539Z,42.91
2023-05-07T13:56:22.451Z,47.64
2023-05-07T13:59:00.239Z,44.40
2023-05-07T14:01:35.240Z,43.87
2023-05-07T14:04:09.778Z,54.10
2023-05-07T14:06:42.695Z,53.01
2023-05-07T14:09:15.627Z,50.77
2023-05-07T14:11:52.154Z,42.65
2023-05-07T14:14:25.089Z,42.74
2023-05-07T14:16:59.503Z,41.84
2023-05-07T14:19:32.529Z,41.48
2023-05-07T14:22:05.428Z,42.09
2023-05-07T14:24:39.671Z,45.35
2023-05-07T14:27:13.553Z,45.85
2023-05-07T14:29:46.567Z,42.42
2023-05-07T14:32:20.846Z,41.33
2023-05-07T14:34:53.784Z,41.86
2023-05-07T14:37:26.584Z,45.42
2023-05-07T14:39:59.377Z,50.96
2023-05-07T14:42:32.165Z,47.75
2023-05-07T14:45:05.754Z,48.81
2023-05-07T14:47:40.244Z,42.00
2023-05-07T14:50:13.396Z,42.70
2023-05-07T14:52:46.394Z,46.00
2023-05-07T14:55:19.271Z,50.17
2023-05-07T14:57:52.184Z,48.44
2023-05-07T15:00:25.209Z,43.83
2023-05-07T15:03:05.300Z,44.98
2023-05-07T15:05:38.834Z,43.24
2023-05-07T15:08:12.025Z,46.33
2023-05-07T15:10:45.060Z,47.05
2023-05-07T15:13:17.925Z,41.66
2023-05-07T15:15:50.815Z,50.90
2023-05-07T15:18:25.612Z,46.54
2023-05-07T15:20:59.092Z,50.87
2023-05-07T15:23:32.781Z,41.86
2023-05-07T15:26:06.142Z,42.91
2023-05-07T15:31:13.392Z,46.74
2023-05-07T15:33:48.555Z,42.74
2023-05-07T15:36:21.953Z,49.24
2023-05-07T15:38:54.834Z,42.02
2023-05-07T15:41:27.636Z,43.58
2023-05-07T15:44:00.578Z,43.96
2023-05-07T15:46:33.590Z,42.56
2023-05-07T15:49:08.448Z,41.09
2023-05-07T15:51:41.367Z,51.04
2023-05-07T15:54:14.390Z,46.20
2023-05-07T15:56:47.241Z,50.73
2023-05-07T15:59:20.103Z,49.63
2023-05-07T16:01:53.564Z,46.64
2023-05-07T16:04:29.292Z,53.06
2023-05-07T16:07:02.603Z,52.27
2023-05-07T16:09:35.689Z,50.59
2023-05-07T16:12:08.764Z,52.92
2023-05-07T16:14:41.686Z,47.13
2023-05-07T16:17:14.760Z,53.96
2023-05-07T16:19:49.213Z,45.85
2023-05-07T16:22:22.113Z,50.75
2023-05-07T16:24:55.086Z,45.78
2023-05-07T16:27:27.950Z,50.96
2023-05-07T16:30:01.373Z,51.13
2023-05-07T16:32:34.792Z,50.83
2023-05-07T16:35:09.591Z,45.86
2023-05-07T16:37:42.863Z,43.78
2023-05-07T16:40:15.699Z,43.97
2023-05-07T16:42:48.554Z,47.31
2023-05-07T16:45:21.428Z,44.79
2023-05-07T16:47:54.832Z,43.73
2023-05-07T16:50:29.208Z,44.63
2023-05-07T16:53:01.990Z,44.27
2023-05-07T16:55:38.878Z,48.52
2023-05-07T16:58:12.880Z,46.03
2023-05-07T17:03:21.539Z,48.35
2023-05-07T17:05:56.218Z,53.39
2023-05-07T17:08:29.261Z,46.17
2023-05-07T17:11:02.224Z,50.58
2023-05-07T17:13:35.696Z,49.30
2023-05-07T17:16:09.000Z,47.64
2023-05-07T17:18:42.194Z,48.71
2023-05-07T17:21:16.356Z,48.60
2023-05-07T17:23:49.360Z,48.76
2023-05-07T17:26:22.395Z,49.15
2023-05-07T17:28:55.319Z,53.40
2023-05-07T17:31:28.312Z,49.27
2023-05-07T17:34:01.228Z,52.37
2023-05-07T17:36:35.425Z,52.46
2023-05-07T17:39:08.661Z,50.18
2023-05-07T17:41:41.561Z,54.41
2023-05-07T17:44:14.402Z,52.96
2023-05-07T17:46:47.254Z,51.84
2023-05-07T17:49:20.161Z,54.70
2023-05-07T17:51:55.762Z,52.20
2023-05-07T17:54:30.360Z,50.77
2023-05-07T17:57:03.819Z,51.60
2023-05-07T17:59:37.155Z,51.26
2023-05-07T18:02:10.220Z,51.28
2023-05-07T18:04:43.154Z,51.25
2023-05-07T18:07:17.243Z,51.54
2023-05-07T18:09:50.276Z,51.90
2023-05-07T18:12:24.452Z,54.30
2023-05-07T18:14:58.636Z,56.00
2023-05-07T18:17:31.488Z,56.34
2023-05-07T18:20:05.865Z,55.04
2023-05-07T18:22:40.447Z,56.73
2023-05-07T18:25:13.654Z,57.03
2023-05-07T18:27:46.461Z,57.69
2023-05-07T18:30:19.544Z,58.01
2023-05-07T18:32:52.606Z,57.03
2023-05-07T18:35:25.627Z,56.02
2023-05-07T18:37:59.937Z,57.40
2023-05-07T18:40:33.060Z,55.87
2023-05-07T18:43:07.198Z,55.81
2023-05-07T18:45:40.446Z,60.59
2023-05-07T18:48:13.375Z,57.16
2023-05-07T18:50:46.603Z,57.29
2023-05-07T18:53:20.965Z,58.74
2023-05-07T18:55:54.483Z,58.52
2023-05-07T18:58:27.693Z,59.34
2023-05-07T19:01:01.388Z,59.16
2023-05-07T19:03:34.221Z,59.67
2023-05-07T19:06:10.239Z,62.24
2023-05-07T19:08:44.930Z,61.18
2023-05-07T19:11:18.133Z,60.70
2023-05-07T19:13:51.172Z,61.28
2023-05-07T19:16:24.414Z,60.24
2023-05-07T19:18:57.350Z,62.25
2023-05-07T19:21:30.544Z,60.01
2023-05-07T19:24:05.402Z,61.10
2023-05-07T19:26:39.708Z,64.86
2023-05-07T19:29:18.225Z,63.22
2023-05-07T19:31:51.942Z,62.76
2023-05-07T19:34:25.077Z,61.57
2023-05-07T19:36:58.480Z,61.74
2023-05-07T19:39:32.806Z,63.96
2023-05-07T19:42:06.088Z,63.03
2023-05-07T19:44:39.075Z,67.07
2023-05-07T19:47:14.278Z,61.04
2023-05-07T19:49:47.107Z,63.38
2023-05-07T19:52:20.439Z,63.86
2023-05-07T19:54:55.042Z,63.85
2023-05-07T19:57:30.296Z,65.76
2023-05-07T20:00:03.201Z,64.36
2023-05-07T20:02:36.712Z,62.16
2023-05-07T20:05:11.271Z,65.31
2023-05-07T20:07:47.175Z,65.55
2023-05-07T20:10:21.631Z,74.35
2023-05-07T20:12:57.321Z,63.24
2023-05-07T20:15:30.368Z,72.12
2023-05-07T20:18:03.299Z,76.31
2023-05-07T20:20:36.546Z,63.12
2023-05-07T20:23:09.485Z,66.87
2023-05-07T20:25:44.252Z,68.08
2023-05-07T20:28:17.388Z,63.95
2023-05-07T20:30:50.576Z,64.01
2023-05-07T20:33:23.774Z,62.05
2023-05-07T20:35:58.678Z,68.92
2023-05-07T20:38:33.917Z,63.07
2023-05-07T20:41:08.940Z,68.29
2023-05-07T20:43:42.103Z,78.10
2023-05-07T20:46:15.348Z,70.77
2023-05-07T20:48:48.218Z,68.56
2023-05-07T20:51:21.492Z,72.59
2023-05-07T20:53:56.819Z,65.40
2023-05-07T20:56:31.330Z,70.11
2023-05-07T20:59:04.392Z,64.72
2023-05-07T21:01:37.292Z,61.92
2023-05-07T21:04:12.971Z,66.27
2023-05-07T21:06:46.141Z,71.52
2023-05-07T21:09:19.227Z,69.99
2023-05-07T21:11:54.032Z,63.11
2023-05-07T21:14:27.524Z,73.17
2023-05-07T21:17:00.869Z,61.71
2023-05-07T21:19:35.813Z,65.78
2023-05-07T21:22:10.835Z,64.07
2023-05-07T21:24:43.871Z,68.35
2023-05-07T21:27:18.127Z,71.50
2023-05-07T21:29:51.085Z,74.17
2023-05-07T21:32:24.166Z,59.56
2023-05-07T21:34:57.413Z,59.94
2023-05-07T21:37:30.520Z,70.03
2023-05-07T21:40:03.445Z,69.91
2023-05-07T21:42:37.741Z,70.81
2023-05-07T21:45:11.223Z,76.43
2023-05-07T21:47:44.109Z,67.96
2023-05-07T21:50:17.141Z,77.19
2023-05-07T21:52:50.412Z,70.51
2023-05-07T21:55:23.604Z,68.02
2023-05-07T21:58:04.689Z,63.97
2023-05-07T22:00:38.937Z,63.49
2023-05-07T22:03:11.837Z,74.74
2023-05-07T22:05:44.856Z,66.44
2023-05-07T22:08:17.592Z,67.88
2023-05-07T22:10:50.432Z,71.31
2023-05-07T22:13:25.108Z,64.32
2023-05-07T22:15:58.787Z,73.61
2023-05-07T22:18:31.815Z,73.34
2023-05-07T22:21:04.948Z,66.96
2023-05-07T22:23:37.871Z,68.74
2023-05-07T22:26:11.374Z,72.03
2023-05-07T22:28:45.768Z,65.35
2023-05-07T22:31:18.971Z,80.53
2023-05-07T22:33:51.764Z,75.77
2023-05-07T22:36:25.912Z,75.59
2023-05-07T22:38:59.394Z,71.93
2023-05-07T22:41:32.341Z,67.32
2023-05-07T22:44:06.899Z,67.71
2023-05-07T22:46:41.156Z,70.79
2023-05-07T22:49:13.977Z,69.82
2023-05-07T22:51:47.377Z,67.19
2023-05-07T22:54:20.184Z,78.09
2023-05-07T22:56:53.542Z,70.63
2023-05-07T22:59:27.766Z,69.74
2023-05-07T23:02:00.840Z,71.43
2023-05-07T23:04:33.750Z,71.80
2023-05-07T23:07:06.707Z,67.86
2023-05-07T23:09:39.639Z,67.71
2023-05-07T23:12:12.460Z,72.34
2023-05-07T23:14:46.684Z,72.80
2023-05-07T23:17:19.809Z,67.70
2023-05-07T23:19:52.613Z,69.56
2023-05-07T23:22:25.571Z,72.50
2023-05-07T23:24:58.362Z,68.21
2023-05-07T23:27:31.543Z,73.54
2023-05-07T23:30:06.414Z,70.41
2023-05-07T23:32:39.350Z,68.22
2023-05-07T23:35:12.282Z,71.84
2023-05-07T23:37:45.244Z,72.61
2023-05-07T23:40:18.778Z,70.92
2023-05-07T23:42:51.730Z,71.37
2023-05-07T23:45:26.460Z,73.70
2023-05-07T23:48:00.420Z,75.00
2023-05-07T23:50:33.392Z,72.15
2023-05-07T23:53:06.364Z,68.60
2023-05-07T23:55:39.272Z,71.18
2023-05-07T23:58:13.012Z,74.18
